Aeroporto :







RITROVATECI SU...

 
LOGIN :

Iscrizione | Disclaimer

   EN    FR    IT 

 









Sommario :    VFR   VFR Marginale   IFR   IFR Intensivo   IFR Molto Intensivo
Visibilità : 
Base nubi : 
>= 8 km
>= 3000ft
5 / 8 km
1000 / 3000 ft
1500m / 5 km
500 / 1000 ft
800 / 1500m
200 / 500 ft
< 800m
< 200 ft
Simboli :   Temporali  Nebbia  Neve Forte  Precipitazioni Forti  Vento > 20 kt






- Altitudine del aeroporto : 59 ft
- Codice IATA : SDQ


MDSD - Las Americas Int.

ULTIMO METAR :
  • 281600Z 08004KT 9999 FEW024 32/24 Q1012

METARs OBSOLETI :
  • 281500Z 00000KT 9999 FEW022 30/25 Q1013
  • 281400Z 07004KT 9999 FEW020CB FEW022 30/22 Q1013 CB/SW

TAF TAF MDSD
Valido dal 28 a 12 ore il 29 a 12 ore UTC


281000Z 2812/2912 00000KT 9999 SCT018 SCT300
BECMG 2813/2815 05004KT
PROB30 2901/2906 7000 -TSRA FEW016CB BKN018 SCT300
FIR MDCS / America del Nord



MetMap, La meteo Aeronautica in un colpo d'occhio ! - Copyright ORBIFLY Dicembre 2007 - Disclaimer

ORBIFLY MET'MAP TEAM :

Programmazione e sviluppo : Alexandra Zaïnal
Concezione : Baudouin d'Aumeries
Aiuto per la programmazione : Marc-Olivier Méhu
Supporto tecnico e logistico : Manuel Goepfert
Aiuto per la traduzione : Arnaldo La Scala

Contatto : metmap@orbifly.com




FONTI E CREDITI :

   NOAA